Flight Number: EUR2338 Duration: 1:45
Departure: Bruxelles National (EBBR) at 18:15 Distance: 521 Nm
Arrival: Bratislava Ivanka (LZIB) at 20:00 Equipment: A321

Weather Information
Bruxelles National, Belgium (EBBR) 50-54N 004-32E 58M May 23, 2018 - 08:20 PM EDT / 2018.05.24 0020 UTC
Wind: from the NW (320 degrees) at 2 MPH (2 KT):0
Visibility: greater than 7 mile(s):0 Temperature: 60 F (16 C) Dew Point: 57 F (14 C) Relative Humidity: 87% Pressure (altimeter): 30.12 in. Hg (1020 hPa)
ob: EBBR 240020Z 32002KT CAVOK 16/14 Q1020 NOSIG cycle: 0
Sunrise: 03:44 Sunset: 19:33 (UTC)

Bratislava Ivanka, Slovakia (LZIB) 48-12N 017-12E 142M May 23, 2018 - 08:30 PM EDT / 2018.05.24 0030 UTC
Wind: from the NNE (020 degrees) at 7 MPH (6 KT):0
Visibility: greater than 7 mile(s):0 Temperature: 62 F (17 C) Dew Point: 59 F (15 C) Relative Humidity: 88% Pressure (altimeter): 30.06 in. Hg (1018 hPa)
ob: LZIB 240030Z 02006KT CAVOK 17/15 Q1018 cycle: 0
Sunrise: 03:05 Sunset: 18:30 (UTC)

TAF:2018/05/23 18:46 TAF LZIB 231700Z 2318/2418 12010KT 9999 SCT040 TEMPO 2318/2402 SHRA BKN030 FEW035CB PROB40 TEMPO 2318/2322 13015G30KT 6000 TSRA BKN027 SCT030CB BECMG 2322/2400 05007KT PROB40 TEMPO 2412/2418 VRB13G23KT 5000 TSRA BKN030 SCT035CB

Previous Pireps for this route
Date Aircraft Flight time Fuel used Landing rate On time
2015-01-09B73702.0210122-208Charter
2015-03-29A32101.3293240Yes
2015-06-07B7770.4027569-463Charter
2015-11-26B77702.1128227-371Charter
(pireps marked green are flown by you)

Route map